sensor_id;sensor_type;location;lat;lon;timestamp;P1;durP1;ratioP1;P2;durP2;ratioP2
68765;SDS011;55756;45.582;11.484;2022-11-12T00:02:32;24.45;;;20.15;;
68765;SDS011;55756;45.582;11.484;2022-11-12T00:05:16;26.83;;;20.73;;
68765;SDS011;55756;45.582;11.484;2022-11-12T00:08:00;25.35;;;21.02;;
68765;SDS011;55756;45.582;11.484;2022-11-12T00:10:46;25.77;;;21.48;;
68765;SDS011;55756;45.582;11.484;2022-11-12T00:13:30;27.73;;;21.08;;
68765;SDS011;55756;45.582;11.484;2022-11-12T00:16:14;26.92;;;21.63;;
68765;SDS011;55756;45.582;11.484;2022-11-12T00:18:59;23.88;;;19.63;;
68765;SDS011;55756;45.582;11.484;2022-11-12T00:21:43;22.63;;;18.98;;
68765;SDS011;55756;45.582;11.484;2022-11-12T00:24:27;25.38;;;21.35;;
68765;SDS011;55756;45.582;11.484;2022-11-12T00:27:11;24.10;;;20.08;;
68765;SDS011;55756;45.582;11.484;2022-11-12T00:29:56;24.08;;;19.85;;
68765;SDS011;55756;45.582;11.484;2022-11-12T00:32:40;23.80;;;18.85;;
68765;SDS011;55756;45.582;11.484;2022-11-12T00:35:24;23.42;;;18.90;;
68765;SDS011;55756;45.582;11.484;2022-11-12T00:38:08;23.92;;;18.52;;
68765;SDS011;55756;45.582;11.484;2022-11-12T00:40:53;25.90;;;19.23;;
68765;SDS011;55756;45.582;11.484;2022-11-12T00:43:37;26.60;;;18.67;;
68765;SDS011;55756;45.582;11.484;2022-11-12T00:46:22;24.85;;;18.38;;
68765;SDS011;55756;45.582;11.484;2022-11-12T00:49:06;23.67;;;18.17;;
68765;SDS011;55756;45.582;11.484;2022-11-12T00:51:51;24.80;;;18.55;;
68765;SDS011;55756;45.582;11.484;2022-11-12T00:54:35;25.77;;;19.20;;
68765;SDS011;55756;45.582;11.484;2022-11-12T00:57:19;24.10;;;19.08;;
68765;SDS011;55756;45.582;11.484;2022-11-12T01:00:04;26.05;;;20.08;;
68765;SDS011;55756;45.582;11.484;2022-11-12T01:02:49;25.65;;;19.77;;
68765;SDS011;55756;45.582;11.484;2022-11-12T01:05:33;24.05;;;18.98;;
68765;SDS011;55756;45.582;11.484;2022-11-12T01:08:18;25.00;;;20.15;;
68765;SDS011;55756;45.582;11.484;2022-11-12T01:11:06;28.90;;;19.48;;
68765;SDS011;55756;45.582;11.484;2022-11-12T01:13:56;26.20;;;20.13;;
68765;SDS011;55756;45.582;11.484;2022-11-12T01:16:44;25.83;;;20.25;;
68765;SDS011;55756;45.582;11.484;2022-11-12T01:19:29;28.88;;;20.45;;
68765;SDS011;55756;45.582;11.484;2022-11-12T01:22:13;30.67;;;21.48;;
68765;SDS011;55756;45.582;11.484;2022-11-12T01:24:57;29.45;;;21.65;;
68765;SDS011;55756;45.582;11.484;2022-11-12T01:27:42;28.23;;;20.88;;
68765;SDS011;55756;45.582;11.484;2022-11-12T01:30:26;27.55;;;20.55;;
68765;SDS011;55756;45.582;11.484;2022-11-12T01:33:10;24.13;;;18.95;;
68765;SDS011;55756;45.582;11.484;2022-11-12T01:35:57;26.83;;;18.98;;
68765;SDS011;55756;45.582;11.484;2022-11-12T01:38:41;25.83;;;20.02;;
68765;SDS011;55756;45.582;11.484;2022-11-12T01:41:28;24.52;;;19.10;;
68765;SDS011;55756;45.582;11.484;2022-11-12T01:47:16;28.35;;;19.65;;
68765;SDS011;55756;45.582;11.484;2022-11-12T01:50:06;26.92;;;19.42;;
68765;SDS011;55756;45.582;11.484;2022-11-12T01:53:02;27.98;;;19.85;;
68765;SDS011;55756;45.582;11.484;2022-11-12T01:55:49;24.75;;;18.52;;
68765;SDS011;55756;45.582;11.484;2022-11-12T01:58:33;23.77;;;18.38;;
68765;SDS011;55756;45.582;11.484;2022-11-12T02:01:20;24.08;;;17.98;;
68765;SDS011;55756;45.582;11.484;2022-11-12T02:04:04;23.85;;;18.77;;
68765;SDS011;55756;45.582;11.484;2022-11-12T02:06:49;26.50;;;20.02;;
68765;SDS011;55756;45.582;11.484;2022-11-12T02:09:35;27.15;;;19.42;;
68765;SDS011;55756;45.582;11.484;2022-11-12T02:12:20;24.90;;;19.15;;
68765;SDS011;55756;45.582;11.484;2022-11-12T02:15:24;29.15;;;19.35;;
68765;SDS011;55756;45.582;11.484;2022-11-12T02:18:08;25.08;;;19.73;;
68765;SDS011;55756;45.582;11.484;2022-11-12T02:20:54;28.63;;;19.95;;
68765;SDS011;55756;45.582;11.484;2022-11-12T02:23:41;22.25;;;17.40;;
68765;SDS011;55756;45.582;11.484;2022-11-12T02:26:25;21.75;;;16.00;;
68765;SDS011;55756;45.582;11.484;2022-11-12T02:29:14;16.63;;;13.68;;
68765;SDS011;55756;45.582;11.484;2022-11-12T02:31:59;17.05;;;14.15;;
68765;SDS011;55756;45.582;11.484;2022-11-12T02:34:44;16.10;;;13.38;;
68765;SDS011;55756;45.582;11.484;2022-11-12T02:37:28;16.63;;;13.50;;
68765;SDS011;55756;45.582;11.484;2022-11-12T02:40:12;16.42;;;14.05;;
68765;SDS011;55756;45.582;11.484;2022-11-12T02:42:57;19.35;;;15.68;;
68765;SDS011;55756;45.582;11.484;2022-11-12T02:45:42;20.85;;;15.65;;
68765;SDS011;55756;45.582;11.484;2022-11-12T02:48:27;20.15;;;16.42;;
68765;SDS011;55756;45.582;11.484;2022-11-12T02:51:11;21.73;;;17.08;;
68765;SDS011;55756;45.582;11.484;2022-11-12T02:53:55;22.17;;;17.88;;
68765;SDS011;55756;45.582;11.484;2022-11-12T02:56:40;24.08;;;18.67;;
68765;SDS011;55756;45.582;11.484;2022-11-12T02:59:24;22.88;;;18.13;;
68765;SDS011;55756;45.582;11.484;2022-11-12T03:02:08;24.42;;;18.98;;
68765;SDS011;55756;45.582;11.484;2022-11-12T03:04:52;24.08;;;18.90;;
68765;SDS011;55756;45.582;11.484;2022-11-12T03:07:36;25.17;;;19.48;;
68765;SDS011;55756;45.582;11.484;2022-11-12T03:10:21;22.52;;;18.40;;
68765;SDS011;55756;45.582;11.484;2022-11-12T03:13:05;20.77;;;17.02;;
68765;SDS011;55756;45.582;11.484;2022-11-12T03:15:50;23.15;;;17.02;;
68765;SDS011;55756;45.582;11.484;2022-11-12T03:18:42;23.63;;;17.98;;
68765;SDS011;55756;45.582;11.484;2022-11-12T03:21:26;23.58;;;18.30;;
68765;SDS011;55756;45.582;11.484;2022-11-12T03:24:10;23.60;;;17.88;;
68765;SDS011;55756;45.582;11.484;2022-11-12T03:26:55;22.95;;;18.30;;
68765;SDS011;55756;45.582;11.484;2022-11-12T03:29:40;21.60;;;17.17;;
68765;SDS011;55756;45.582;11.484;2022-11-12T03:32:24;26.98;;;20.55;;
68765;SDS011;55756;45.582;11.484;2022-11-12T03:35:08;24.70;;;20.20;;
68765;SDS011;55756;45.582;11.484;2022-11-12T03:37:53;28.02;;;20.42;;
68765;SDS011;55756;45.582;11.484;2022-11-12T03:40:38;26.65;;;20.58;;
68765;SDS011;55756;45.582;11.484;2022-11-12T03:43:22;28.17;;;20.80;;
68765;SDS011;55756;45.582;11.484;2022-11-12T03:46:06;28.55;;;20.85;;
68765;SDS011;55756;45.582;11.484;2022-11-12T03:48:50;28.80;;;20.92;;
68765;SDS011;55756;45.582;11.484;2022-11-12T03:51:35;28.13;;;20.35;;
68765;SDS011;55756;45.582;11.484;2022-11-12T03:54:19;27.65;;;20.85;;
68765;SDS011;55756;45.582;11.484;2022-11-12T03:57:03;24.67;;;19.02;;
68765;SDS011;55756;45.582;11.484;2022-11-12T03:59:48;25.50;;;19.27;;
68765;SDS011;55756;45.582;11.484;2022-11-12T04:02:32;24.35;;;18.20;;
68765;SDS011;55756;45.582;11.484;2022-11-12T04:05:17;21.75;;;15.70;;
68765;SDS011;55756;45.582;11.484;2022-11-12T04:08:21;18.13;;;14.82;;
68765;SDS011;55756;45.582;11.484;2022-11-12T04:11:22;17.38;;;14.32;;
68765;SDS011;55756;45.582;11.484;2022-11-12T04:14:07;18.27;;;15.00;;
68765;SDS011;55756;45.582;11.484;2022-11-12T04:16:51;18.90;;;14.82;;
68765;SDS011;55756;45.582;11.484;2022-11-12T04:19:55;17.60;;;14.73;;
68765;SDS011;55756;45.582;11.484;2022-11-12T04:22:58;24.25;;;16.15;;
68765;SDS011;55756;45.582;11.484;2022-11-12T04:25:42;22.40;;;16.73;;
68765;SDS011;55756;45.582;11.484;2022-11-12T04:28:46;22.70;;;17.52;;
68765;SDS011;55756;45.582;11.484;2022-11-12T04:31:49;22.38;;;17.63;;
68765;SDS011;55756;45.582;11.484;2022-11-12T04:34:33;25.55;;;18.23;;
68765;SDS011;55756;45.582;11.484;2022-11-12T04:37:18;26.73;;;20.75;;
68765;SDS011;55756;45.582;11.484;2022-11-12T04:40:02;29.30;;;21.92;;
68765;SDS011;55756;45.582;11.484;2022-11-12T04:43:08;28.75;;;20.67;;
68765;SDS011;55756;45.582;11.484;2022-11-12T04:46:15;28.10;;;20.27;;
68765;SDS011;55756;45.582;11.484;2022-11-12T04:48:59;27.98;;;20.80;;
68765;SDS011;55756;45.582;11.484;2022-11-12T04:51:43;44.92;;;20.63;;
68765;SDS011;55756;45.582;11.484;2022-11-12T04:54:46;28.13;;;20.98;;
68765;SDS011;55756;45.582;11.484;2022-11-12T04:57:30;25.98;;;19.80;;
68765;SDS011;55756;45.582;11.484;2022-11-12T05:00:15;23.38;;;18.70;;
68765;SDS011;55756;45.582;11.484;2022-11-12T05:03:00;23.50;;;18.48;;
68765;SDS011;55756;45.582;11.484;2022-11-12T05:05:44;27.70;;;20.45;;
68765;SDS011;55756;45.582;11.484;2022-11-12T05:08:28;27.83;;;20.98;;
68765;SDS011;55756;45.582;11.484;2022-11-12T05:11:12;29.05;;;21.88;;
68765;SDS011;55756;45.582;11.484;2022-11-12T05:13:56;30.50;;;21.67;;
68765;SDS011;55756;45.582;11.484;2022-11-12T05:16:41;29.83;;;22.00;;
68765;SDS011;55756;45.582;11.484;2022-11-12T05:19:26;27.80;;;20.63;;
68765;SDS011;55756;45.582;11.484;2022-11-12T05:22:10;27.92;;;20.40;;
68765;SDS011;55756;45.582;11.484;2022-11-12T05:24:54;27.83;;;20.23;;
68765;SDS011;55756;45.582;11.484;2022-11-12T05:27:38;26.95;;;19.95;;
68765;SDS011;55756;45.582;11.484;2022-11-12T05:30:22;23.58;;;18.20;;
68765;SDS011;55756;45.582;11.484;2022-11-12T05:33:07;21.85;;;17.63;;
68765;SDS011;55756;45.582;11.484;2022-11-12T05:35:54;23.60;;;18.77;;
68765;SDS011;55756;45.582;11.484;2022-11-12T05:38:39;23.80;;;19.20;;
68765;SDS011;55756;45.582;11.484;2022-11-12T05:41:23;24.80;;;19.70;;
68765;SDS011;55756;45.582;11.484;2022-11-12T05:44:07;25.55;;;18.20;;
68765;SDS011;55756;45.582;11.484;2022-11-12T05:46:51;22.15;;;18.02;;
68765;SDS011;55756;45.582;11.484;2022-11-12T05:49:36;20.80;;;16.20;;
68765;SDS011;55756;45.582;11.484;2022-11-12T05:52:20;20.00;;;15.65;;
68765;SDS011;55756;45.582;11.484;2022-11-12T05:55:05;21.02;;;16.30;;
68765;SDS011;55756;45.582;11.484;2022-11-12T05:57:49;21.67;;;16.77;;
68765;SDS011;55756;45.582;11.484;2022-11-12T06:00:34;21.73;;;16.35;;
68765;SDS011;55756;45.582;11.484;2022-11-12T06:03:21;20.55;;;15.43;;
68765;SDS011;55756;45.582;11.484;2022-11-12T06:06:07;20.33;;;15.20;;
68765;SDS011;55756;45.582;11.484;2022-11-12T06:08:51;19.73;;;15.75;;
68765;SDS011;55756;45.582;11.484;2022-11-12T06:11:36;21.42;;;16.77;;
68765;SDS011;55756;45.582;11.484;2022-11-12T06:14:20;21.92;;;16.35;;
68765;SDS011;55756;45.582;11.484;2022-11-12T06:17:04;20.33;;;16.92;;
68765;SDS011;55756;45.582;11.484;2022-11-12T06:19:48;21.20;;;16.35;;
68765;SDS011;55756;45.582;11.484;2022-11-12T06:22:33;20.42;;;16.77;;
68765;SDS011;55756;45.582;11.484;2022-11-12T06:25:17;20.58;;;17.65;;
68765;SDS011;55756;45.582;11.484;2022-11-12T06:28:02;21.67;;;17.45;;
68765;SDS011;55756;45.582;11.484;2022-11-12T06:30:46;22.60;;;18.35;;
68765;SDS011;55756;45.582;11.484;2022-11-12T06:33:30;21.77;;;17.73;;
68765;SDS011;55756;45.582;11.484;2022-11-12T06:36:16;21.38;;;16.73;;
68765;SDS011;55756;45.582;11.484;2022-11-12T06:39:02;22.17;;;16.05;;
68765;SDS011;55756;45.582;11.484;2022-11-12T06:41:46;20.60;;;15.68;;
68765;SDS011;55756;45.582;11.484;2022-11-12T06:44:30;18.85;;;14.95;;
68765;SDS011;55756;45.582;11.484;2022-11-12T06:47:15;20.95;;;15.55;;
68765;SDS011;55756;45.582;11.484;2022-11-12T06:49:59;18.02;;;13.90;;
68765;SDS011;55756;45.582;11.484;2022-11-12T06:52:44;20.42;;;15.27;;
68765;SDS011;55756;45.582;11.484;2022-11-12T06:55:29;20.13;;;15.40;;
68765;SDS011;55756;45.582;11.484;2022-11-12T06:58:13;20.30;;;15.98;;
68765;SDS011;55756;45.582;11.484;2022-11-12T07:01:02;20.75;;;16.67;;
68765;SDS011;55756;45.582;11.484;2022-11-12T07:03:56;22.45;;;17.63;;
68765;SDS011;55756;45.582;11.484;2022-11-12T07:06:40;25.45;;;20.10;;
68765;SDS011;55756;45.582;11.484;2022-11-12T07:09:25;27.13;;;20.40;;
68765;SDS011;55756;45.582;11.484;2022-11-12T07:12:09;25.88;;;19.67;;
68765;SDS011;55756;45.582;11.484;2022-11-12T07:14:53;27.38;;;19.00;;
68765;SDS011;55756;45.582;11.484;2022-11-12T07:17:38;27.25;;;19.85;;
68765;SDS011;55756;45.582;11.484;2022-11-12T07:20:22;25.50;;;19.05;;
68765;SDS011;55756;45.582;11.484;2022-11-12T07:23:07;25.23;;;19.40;;
68765;SDS011;55756;45.582;11.484;2022-11-12T07:25:55;24.58;;;17.92;;
68765;SDS011;55756;45.582;11.484;2022-11-12T07:28:40;22.10;;;17.02;;
68765;SDS011;55756;45.582;11.484;2022-11-12T07:31:25;24.70;;;16.98;;
68765;SDS011;55756;45.582;11.484;2022-11-12T07:34:09;22.13;;;17.17;;
68765;SDS011;55756;45.582;11.484;2022-11-12T07:36:53;23.95;;;17.95;;
68765;SDS011;55756;45.582;11.484;2022-11-12T07:39:38;23.30;;;17.92;;
68765;SDS011;55756;45.582;11.484;2022-11-12T07:42:22;24.92;;;18.67;;
68765;SDS011;55756;45.582;11.484;2022-11-12T07:45:06;23.00;;;17.67;;
68765;SDS011;55756;45.582;11.484;2022-11-12T07:47:51;27.77;;;18.70;;
68765;SDS011;55756;45.582;11.484;2022-11-12T07:50:35;26.42;;;16.98;;
68765;SDS011;55756;45.582;11.484;2022-11-12T07:53:19;23.40;;;16.52;;
68765;SDS011;55756;45.582;11.484;2022-11-12T07:56:04;25.67;;;17.52;;
68765;SDS011;55756;45.582;11.484;2022-11-12T07:58:49;26.42;;;18.55;;
68765;SDS011;55756;45.582;11.484;2022-11-12T08:01:34;27.60;;;19.38;;
68765;SDS011;55756;45.582;11.484;2022-11-12T08:04:20;28.25;;;21.00;;
68765;SDS011;55756;45.582;11.484;2022-11-12T08:07:04;24.85;;;18.48;;
68765;SDS011;55756;45.582;11.484;2022-11-12T08:09:48;22.55;;;16.27;;
68765;SDS011;55756;45.582;11.484;2022-11-12T08:12:33;22.90;;;15.63;;
68765;SDS011;55756;45.582;11.484;2022-11-12T08:15:17;20.50;;;15.10;;
68765;SDS011;55756;45.582;11.484;2022-11-12T08:18:01;18.88;;;14.55;;
68765;SDS011;55756;45.582;11.484;2022-11-12T08:20:46;22.15;;;14.93;;
68765;SDS011;55756;45.582;11.484;2022-11-12T08:23:30;20.98;;;13.85;;
68765;SDS011;55756;45.582;11.484;2022-11-12T08:26:15;18.30;;;14.20;;
68765;SDS011;55756;45.582;11.484;2022-11-12T08:29:01;20.92;;;14.60;;
68765;SDS011;55756;45.582;11.484;2022-11-12T08:31:46;26.92;;;16.23;;
68765;SDS011;55756;45.582;11.484;2022-11-12T08:34:30;24.70;;;15.80;;
68765;SDS011;55756;45.582;11.484;2022-11-12T08:37:14;20.00;;;14.60;;
68765;SDS011;55756;45.582;11.484;2022-11-12T08:39:59;20.48;;;13.50;;
68765;SDS011;55756;45.582;11.484;2022-11-12T08:42:43;20.50;;;13.85;;
68765;SDS011;55756;45.582;11.484;2022-11-12T08:45:28;18.95;;;14.27;;
68765;SDS011;55756;45.582;11.484;2022-11-12T08:48:15;19.60;;;14.55;;
68765;SDS011;55756;45.582;11.484;2022-11-12T08:51:02;21.92;;;14.45;;
68765;SDS011;55756;45.582;11.484;2022-11-12T08:53:48;19.63;;;13.35;;
68765;SDS011;55756;45.582;11.484;2022-11-12T08:56:32;18.27;;;12.77;;
68765;SDS011;55756;45.582;11.484;2022-11-12T08:59:16;22.58;;;13.48;;
68765;SDS011;55756;45.582;11.484;2022-11-12T09:02:00;19.05;;;12.55;;
68765;SDS011;55756;45.582;11.484;2022-11-12T09:04:45;18.50;;;13.38;;
68765;SDS011;55756;45.582;11.484;2022-11-12T09:07:30;23.25;;;15.10;;
68765;SDS011;55756;45.582;11.484;2022-11-12T09:10:14;20.27;;;14.20;;
68765;SDS011;55756;45.582;11.484;2022-11-12T09:12:59;21.05;;;14.07;;
68765;SDS011;55756;45.582;11.484;2022-11-12T09:15:45;20.00;;;14.93;;
68765;SDS011;55756;45.582;11.484;2022-11-12T09:18:30;19.35;;;13.43;;
68765;SDS011;55756;45.582;11.484;2022-11-12T09:21:16;20.90;;;12.95;;
68765;SDS011;55756;45.582;11.484;2022-11-12T09:24:01;17.08;;;12.57;;
68765;SDS011;55756;45.582;11.484;2022-11-12T09:26:46;21.15;;;13.35;;
68765;SDS011;55756;45.582;11.484;2022-11-12T09:29:30;18.30;;;13.05;;
68765;SDS011;55756;45.582;11.484;2022-11-12T09:32:15;22.02;;;14.48;;
68765;SDS011;55756;45.582;11.484;2022-11-12T09:34:59;19.80;;;14.32;;
68765;SDS011;55756;45.582;11.484;2022-11-12T09:37:44;22.15;;;15.85;;
68765;SDS011;55756;45.582;11.484;2022-11-12T09:43:40;20.83;;;14.57;;
68765;SDS011;55756;45.582;11.484;2022-11-12T09:49:40;23.92;;;15.25;;
68765;SDS011;55756;45.582;11.484;2022-11-12T09:52:34;20.98;;;14.30;;
68765;SDS011;55756;45.582;11.484;2022-11-12T09:55:23;22.17;;;14.35;;
68765;SDS011;55756;45.582;11.484;2022-11-12T09:58:14;21.08;;;13.85;;
68765;SDS011;55756;45.582;11.484;2022-11-12T10:01:02;19.45;;;12.88;;
68765;SDS011;55756;45.582;11.484;2022-11-12T10:06:45;17.52;;;11.95;;
68765;SDS011;55756;45.582;11.484;2022-11-12T10:10:07;22.50;;;11.68;;
68765;SDS011;55756;45.582;11.484;2022-11-12T10:23:07;17.38;;;11.43;;
68765;SDS011;55756;45.582;11.484;2022-11-12T10:26:08;17.85;;;12.10;;
68765;SDS011;55756;45.582;11.484;2022-11-12T10:31:53;22.40;;;12.35;;
68765;SDS011;55756;45.582;11.484;2022-11-12T10:34:37;19.05;;;11.68;;
68765;SDS011;55756;45.582;11.484;2022-11-12T10:37:44;19.20;;;12.20;;
68765;SDS011;55756;45.582;11.484;2022-11-12T10:40:47;20.00;;;12.02;;
68765;SDS011;55756;45.582;11.484;2022-11-12T10:43:31;19.98;;;12.30;;
68765;SDS011;55756;45.582;11.484;2022-11-12T10:46:17;19.67;;;12.55;;
68765;SDS011;55756;45.582;11.484;2022-11-12T10:51:57;18.60;;;12.57;;
68765;SDS011;55756;45.582;11.484;2022-11-12T10:54:42;17.35;;;12.88;;
68765;SDS011;55756;45.582;11.484;2022-11-12T10:57:26;20.65;;;12.63;;
68765;SDS011;55756;45.582;11.484;2022-11-12T11:02:55;19.80;;;13.40;;
68765;SDS011;55756;45.582;11.484;2022-11-12T11:05:53;20.15;;;13.30;;
68765;SDS011;55756;45.582;11.484;2022-11-12T11:11:29;20.42;;;13.40;;
68765;SDS011;55756;45.582;11.484;2022-11-12T11:14:22;22.33;;;13.75;;
68765;SDS011;55756;45.582;11.484;2022-11-12T11:17:16;18.85;;;13.13;;
68765;SDS011;55756;45.582;11.484;2022-11-12T11:22:49;21.10;;;12.45;;
68765;SDS011;55756;45.582;11.484;2022-11-12T11:25:38;20.35;;;12.02;;
68765;SDS011;55756;45.582;11.484;2022-11-12T11:28:28;20.98;;;11.50;;
68765;SDS011;55756;45.582;11.484;2022-11-12T11:31:31;20.05;;;10.80;;
68765;SDS011;55756;45.582;11.484;2022-11-12T11:37:41;21.17;;;13.40;;
68765;SDS011;55756;45.582;11.484;2022-11-12T11:40:36;24.52;;;15.98;;
68765;SDS011;55756;45.582;11.484;2022-11-12T11:53:07;26.20;;;16.85;;
68765;SDS011;55756;45.582;11.484;2022-11-12T11:56:13;26.80;;;19.63;;
68765;SDS011;55756;45.582;11.484;2022-11-12T12:14:45;25.38;;;19.23;;
68765;SDS011;55756;45.582;11.484;2022-11-12T12:18:38;29.45;;;19.00;;
68765;SDS011;55756;45.582;11.484;2022-11-12T12:24:09;28.77;;;18.85;;
68765;SDS011;55756;45.582;11.484;2022-11-12T12:27:17;25.27;;;18.05;;
68765;SDS011;55756;45.582;11.484;2022-11-12T12:30:06;23.38;;;17.30;;
68765;SDS011;55756;45.582;11.484;2022-11-12T12:36:30;26.08;;;18.25;;
68765;SDS011;55756;45.582;11.484;2022-11-12T12:39:24;27.42;;;19.08;;
68765;SDS011;55756;45.582;11.484;2022-11-12T12:42:33;26.27;;;17.77;;
68765;SDS011;55756;45.582;11.484;2022-11-12T12:45:36;24.45;;;16.58;;
68765;SDS011;55756;45.582;11.484;2022-11-12T12:48:30;25.75;;;15.40;;
68765;SDS011;55756;45.582;11.484;2022-11-12T12:51:18;25.15;;;16.08;;
68765;SDS011;55756;45.582;11.484;2022-11-12T12:54:02;22.17;;;15.55;;
68765;SDS011;55756;45.582;11.484;2022-11-12T12:56:47;23.13;;;15.27;;
68765;SDS011;55756;45.582;11.484;2022-11-12T12:59:31;27.80;;;16.33;;
68765;SDS011;55756;45.582;11.484;2022-11-12T13:02:20;26.42;;;16.77;;
68765;SDS011;55756;45.582;11.484;2022-11-12T13:05:26;23.15;;;15.00;;
68765;SDS011;55756;45.582;11.484;2022-11-12T13:08:19;20.52;;;14.68;;
68765;SDS011;55756;45.582;11.484;2022-11-12T13:11:07;22.83;;;14.10;;
68765;SDS011;55756;45.582;11.484;2022-11-12T13:13:52;22.80;;;14.40;;
68765;SDS011;55756;45.582;11.484;2022-11-12T13:19:34;25.67;;;15.60;;
68765;SDS011;55756;45.582;11.484;2022-11-12T13:28:09;25.77;;;17.25;;
68765;SDS011;55756;45.582;11.484;2022-11-12T13:30:56;24.23;;;16.83;;
68765;SDS011;55756;45.582;11.484;2022-11-12T13:33:41;26.85;;;17.73;;
68765;SDS011;55756;45.582;11.484;2022-11-12T13:36:26;24.50;;;17.70;;
68765;SDS011;55756;45.582;11.484;2022-11-12T13:39:13;23.63;;;17.13;;
68765;SDS011;55756;45.582;11.484;2022-11-12T13:42:00;25.85;;;17.70;;
68765;SDS011;55756;45.582;11.484;2022-11-12T13:45:13;24.92;;;18.73;;
68765;SDS011;55756;45.582;11.484;2022-11-12T13:48:04;24.98;;;18.33;;
68765;SDS011;55756;45.582;11.484;2022-11-12T13:50:57;24.42;;;17.33;;
68765;SDS011;55756;45.582;11.484;2022-11-12T13:53:46;25.38;;;17.65;;
68765;SDS011;55756;45.582;11.484;2022-11-12T13:56:31;25.10;;;17.50;;
68765;SDS011;55756;45.582;11.484;2022-11-12T13:59:24;26.75;;;18.38;;
68765;SDS011;55756;45.582;11.484;2022-11-12T14:02:16;24.48;;;18.05;;
68765;SDS011;55756;45.582;11.484;2022-11-12T14:05:25;26.60;;;17.27;;
68765;SDS011;55756;45.582;11.484;2022-11-12T14:20:28;27.63;;;19.70;;
68765;SDS011;55756;45.582;11.484;2022-11-12T14:23:20;33.47;;;20.95;;
68765;SDS011;55756;45.582;11.484;2022-11-12T14:26:05;31.38;;;22.40;;
68765;SDS011;55756;45.582;11.484;2022-11-12T14:28:56;32.17;;;23.53;;
68765;SDS011;55756;45.582;11.484;2022-11-12T14:31:41;32.47;;;23.40;;
68765;SDS011;55756;45.582;11.484;2022-11-12T14:34:27;36.40;;;24.25;;
68765;SDS011;55756;45.582;11.484;2022-11-12T14:37:31;35.97;;;24.30;;
68765;SDS011;55756;45.582;11.484;2022-11-12T14:40:19;39.60;;;23.75;;
68765;SDS011;55756;45.582;11.484;2022-11-12T14:43:04;35.63;;;24.30;;
68765;SDS011;55756;45.582;11.484;2022-11-12T14:45:49;35.53;;;24.75;;
68765;SDS011;55756;45.582;11.484;2022-11-12T14:48:49;32.80;;;24.13;;
68765;SDS011;55756;45.582;11.484;2022-11-12T14:51:46;34.97;;;24.52;;
68765;SDS011;55756;45.582;11.484;2022-11-12T14:54:35;32.25;;;23.23;;
68765;SDS011;55756;45.582;11.484;2022-11-12T14:57:28;33.83;;;23.73;;
68765;SDS011;55756;45.582;11.484;2022-11-12T15:00:23;35.20;;;23.45;;
68765;SDS011;55756;45.582;11.484;2022-11-12T15:03:22;34.30;;;23.58;;
68765;SDS011;55756;45.582;11.484;2022-11-12T15:06:14;33.63;;;24.23;;
68765;SDS011;55756;45.582;11.484;2022-11-12T15:09:04;33.30;;;24.60;;
68765;SDS011;55756;45.582;11.484;2022-11-12T15:11:48;35.92;;;24.85;;
68765;SDS011;55756;45.582;11.484;2022-11-12T15:14:33;36.08;;;24.10;;
68765;SDS011;55756;45.582;11.484;2022-11-12T15:17:26;37.60;;;26.45;;
68765;SDS011;55756;45.582;11.484;2022-11-12T15:20:15;36.30;;;25.80;;
68765;SDS011;55756;45.582;11.484;2022-11-12T15:23:02;35.45;;;24.80;;
68765;SDS011;55756;45.582;11.484;2022-11-12T15:25:56;35.05;;;25.80;;
68765;SDS011;55756;45.582;11.484;2022-11-12T15:28:45;34.45;;;25.85;;
68765;SDS011;55756;45.582;11.484;2022-11-12T15:31:55;39.85;;;28.13;;
68765;SDS011;55756;45.582;11.484;2022-11-12T15:34:52;39.08;;;28.50;;
68765;SDS011;55756;45.582;11.484;2022-11-12T15:37:39;41.53;;;28.58;;
68765;SDS011;55756;45.582;11.484;2022-11-12T15:40:25;41.25;;;31.02;;
68765;SDS011;55756;45.582;11.484;2022-11-12T15:43:17;45.88;;;35.97;;
68765;SDS011;55756;45.582;11.484;2022-11-12T15:46:14;50.53;;;36.78;;
68765;SDS011;55756;45.582;11.484;2022-11-12T15:48:58;52.63;;;37.15;;
68765;SDS011;55756;45.582;11.484;2022-11-12T15:51:42;51.75;;;38.40;;
68765;SDS011;55756;45.582;11.484;2022-11-12T15:54:27;48.30;;;39.83;;
68765;SDS011;55756;45.582;11.484;2022-11-12T15:57:24;50.17;;;38.85;;
68765;SDS011;55756;45.582;11.484;2022-11-12T16:00:13;53.15;;;39.70;;
68765;SDS011;55756;45.582;11.484;2022-11-12T16:03:12;52.95;;;39.67;;
68765;SDS011;55756;45.582;11.484;2022-11-12T16:06:01;64.68;;;42.25;;
68765;SDS011;55756;45.582;11.484;2022-11-12T16:08:46;60.95;;;42.60;;
68765;SDS011;55756;45.582;11.484;2022-11-12T16:11:30;60.58;;;39.88;;
68765;SDS011;55756;45.582;11.484;2022-11-12T16:14:20;51.80;;;37.92;;
68765;SDS011;55756;45.582;11.484;2022-11-12T16:17:07;48.10;;;35.33;;
68765;SDS011;55756;45.582;11.484;2022-11-12T16:19:57;51.38;;;37.45;;
68765;SDS011;55756;45.582;11.484;2022-11-12T16:22:42;55.33;;;38.35;;
68765;SDS011;55756;45.582;11.484;2022-11-12T16:25:31;56.63;;;38.33;;
68765;SDS011;55756;45.582;11.484;2022-11-12T16:28:17;42.45;;;30.70;;
68765;SDS011;55756;45.582;11.484;2022-11-12T16:31:01;46.58;;;32.83;;
68765;SDS011;55756;45.582;11.484;2022-11-12T16:33:46;42.45;;;29.88;;
68765;SDS011;55756;45.582;11.484;2022-11-12T16:36:31;37.60;;;28.63;;
68765;SDS011;55756;45.582;11.484;2022-11-12T16:39:16;40.53;;;27.80;;
68765;SDS011;55756;45.582;11.484;2022-11-12T16:42:00;39.13;;;26.80;;
68765;SDS011;55756;45.582;11.484;2022-11-12T16:44:44;38.85;;;25.50;;
68765;SDS011;55756;45.582;11.484;2022-11-12T16:47:29;39.25;;;26.67;;
68765;SDS011;55756;45.582;11.484;2022-11-12T16:50:15;40.95;;;29.00;;
68765;SDS011;55756;45.582;11.484;2022-11-12T16:53:02;47.20;;;33.10;;
68765;SDS011;55756;45.582;11.484;2022-11-12T16:55:46;51.25;;;35.70;;
68765;SDS011;55756;45.582;11.484;2022-11-12T16:58:30;51.88;;;36.55;;
68765;SDS011;55756;45.582;11.484;2022-11-12T17:01:28;53.47;;;35.67;;
68765;SDS011;55756;45.582;11.484;2022-11-12T17:04:14;49.70;;;36.22;;
68765;SDS011;55756;45.582;11.484;2022-11-12T17:06:58;66.65;;;41.05;;
68765;SDS011;55756;45.582;11.484;2022-11-12T17:09:42;62.50;;;41.67;;
68765;SDS011;55756;45.582;11.484;2022-11-12T17:12:26;71.15;;;42.47;;
68765;SDS011;55756;45.582;11.484;2022-11-12T17:15:10;69.63;;;43.33;;
68765;SDS011;55756;45.582;11.484;2022-11-12T17:17:54;59.75;;;40.30;;
68765;SDS011;55756;45.582;11.484;2022-11-12T17:20:38;68.72;;;42.33;;
68765;SDS011;55756;45.582;11.484;2022-11-12T17:23:22;60.70;;;41.70;;
68765;SDS011;55756;45.582;11.484;2022-11-12T17:26:11;65.88;;;42.80;;
68765;SDS011;55756;45.582;11.484;2022-11-12T17:28:57;64.63;;;41.75;;
68765;SDS011;55756;45.582;11.484;2022-11-12T17:31:45;64.10;;;40.65;;
68765;SDS011;55756;45.582;11.484;2022-11-12T17:34:31;64.60;;;40.00;;
68765;SDS011;55756;45.582;11.484;2022-11-12T17:37:15;60.92;;;38.47;;
68765;SDS011;55756;45.582;11.484;2022-11-12T17:40:00;88.78;;;52.72;;